Etusivu
METAR-TAF:

METAR-TAF

Lentoasemat :

RAF

Holbeach, Englanti

Leveyspiiri: 52-52N, Pituuspiiri: 000-09E, korkeus merenpinnasta: 3 m

Tämänhetkinen sää

Tämä raportti tehtiin 2 tuntia ja 49 minuuttia sitten, kello 13.50 UTC
Tuuli 10 kn idästä
Lämpötila 12°C
Kosteus 94%
Ilmanpaine 1006 hPa
Näkyvyys: 4500 m
Hajonneita pilviä 4000 ft:n korkeudessa
vesikuuroja

METAR: EGYH 141350Z 08010KT 4500 SHRA BKN040 12/11 Q1006 RMK GRN

Aika: 17:39 (16:39 UTC)


TAF: puuttuu

Säähavainnot ja -ennusteet yli 4000 lentoasemalta (METAR- ja TAF-raportit).

Käytössä olevat sääasemat on merkitty karttaan keltaisilla ja punaisilla pisteillä.

Aseta hiiri pisteen päälle nähdäksesi sääaseman nimen.

Klikkaa sitten nähdäksesi säähavainnot ja -ennusteet.

Kartan vaihtaminen: klikkaa mustalla rastilla varustettuja vihreitä pisteitä, niin voit zoomata sisään; viivalla varustettua vihreää pistettä, niin voit zoomata ulos tai vihreitä nuolia, niin pääset viereisille kartoille.


METAR-TAF: